Time;durP1;ratioP1;P1;durP2;ratioP2;P2;SDS_P1;SDS_P2;PMS_P1;PMS_P2;Temp;Humidity;BMP_temperature;BMP_pressure;BME280_temperature;BME280_humidity;BME280_pressure;Samples;Min_cycle;Max_cycle;Signal;HPM_P1;HPM_P2
2022/07/28 00:00:55;;;;;;;3.05;1.50;;;;;;;13.31;100.00;102138.38;6209371;23;20024;-76
2022/07/28 00:03:23;;;;;;;1.83;1.42;;;;;;;13.30;100.00;102143.59;6208081;23;20028;-77
2022/07/28 00:05:52;;;;;;;1.63;1.40;;;;;;;13.28;100.00;102138.28;6209512;23;20032;-77
2022/07/28 00:08:20;;;;;;;2.70;1.73;;;;;;;13.24;100.00;102131.19;6172590;23;20481;-77
2022/07/28 00:10:49;;;;;;;1.92;1.70;;;;;;;13.20;100.00;102139.97;6187526;23;20027;-77
2022/07/28 00:13:17;;;;;;;2.97;1.63;;;;;;;13.17;100.00;102131.97;6189206;23;20031;-77
2022/07/28 00:15:45;;;;;;;1.83;1.52;;;;;;;13.14;100.00;102134.59;6205516;23;20080;-77
2022/07/28 00:18:13;;;;;;;3.53;2.47;;;;;;;13.11;100.00;102134.53;6185901;23;20016;-77
2022/07/28 00:20:42;;;;;;;4.28;1.60;;;;;;;13.08;100.00;102135.41;6186254;23;20016;-77
2022/07/28 00:23:10;;;;;;;3.65;1.58;;;;;;;13.07;100.00;102133.59;6186670;23;20072;-77
2022/07/28 00:25:39;;;;;;;4.00;1.20;;;;;;;13.04;100.00;102129.19;6171966;23;20623;-77
2022/07/28 00:28:07;;;;;;;3.33;1.55;;;;;;;13.03;100.00;102127.38;6193644;23;20028;-78
2022/07/28 00:30:35;;;;;;;5.65;1.55;;;;;;;13.05;100.00;102128.28;6179090;23;20542;-76
2022/07/28 00:33:04;;;;;;;7.68;1.80;;;;;;;13.06;100.00;102121.22;6213096;23;20027;-77
2022/07/28 00:35:33;;;;;;;5.13;2.67;;;;;;;13.06;100.00;102126.53;6198267;23;20362;-77
2022/07/28 00:38:01;;;;;;;3.88;1.58;;;;;;;13.06;100.00;102118.59;6187839;23;20048;-77
2022/07/28 00:43:19;;;;;;;6.68;1.90;;;;;;;13.04;100.00;102126.53;6184049;23;20024;-76
2022/07/28 00:45:47;;;;;;;3.38;1.90;;;;;;;13.04;100.00;102122.97;6211005;23;20466;-76
2022/07/28 00:48:16;;;;;;;2.97;2.38;;;;;;;13.00;100.00;102121.16;6180618;23;20021;-78
2022/07/28 00:50:45;;;;;;;5.03;2.45;;;;;;;12.97;100.00;102121.13;6213280;23;20035;-77
2022/07/28 00:53:13;;;;;;;4.03;2.28;;;;;;;12.95;100.00;102115.81;6210340;23;20017;-77
2022/07/28 00:55:42;;;;;;;3.25;3.00;;;;;;;12.94;100.00;102114.03;6206852;23;20020;-76
2022/07/28 00:58:31;;;;;;;4.22;3.05;;;;;;;12.92;100.00;102118.41;6156323;23;20198;-77
2022/07/28 01:00:59;;;;;;;4.72;3.10;;;;;;;12.93;100.00;102121.94;6192663;23;20032;-77
2022/07/28 01:03:28;;;;;;;5.90;3.47;;;;;;;12.94;100.00;102121.09;6171499;23;20235;-76
2022/07/28 01:06:30;;;;;;;6.78;2.60;;;;;;;12.94;100.00;102123.72;6164854;23;20020;-75
2022/07/28 01:09:29;;;;;;;4.97;3.10;;;;;;;12.93;100.00;102122.84;6175468;23;20401;-74
2022/07/28 01:12:24;;;;;;;5.63;2.97;;;;;;;12.95;100.00;102128.13;6215901;23;20012;-76
2022/07/28 01:15:21;;;;;;;3.03;2.50;;;;;;;12.96;100.00;102119.34;6167801;23;20023;-74
2022/07/28 01:17:56;;;;;;;3.58;2.83;;;;;;;12.98;100.00;102117.59;6189947;23;20028;-74
2022/07/28 01:20:33;;;;;;;4.63;2.65;;;;;;;12.99;100.00;102116.75;6208021;23;20493;-74
2022/07/28 01:23:07;;;;;;;2.90;2.58;;;;;;;13.00;100.00;102122.03;6191332;23;20023;-74
2022/07/28 01:25:38;;;;;;;4.50;2.42;;;;;;;13.02;100.00;102119.41;6187013;23;20020;-75
2022/07/28 01:28:51;;;;;;;3.15;2.38;;;;;;;13.04;100.00;102112.38;6215354;23;20020;-74
2022/07/28 01:31:23;;;;;;;5.47;2.92;;;;;;;13.06;100.00;102110.66;6192412;23;20009;-74
2022/07/28 01:33:57;;;;;;;4.40;2.72;;;;;;;13.09;100.00;102116.00;6203175;23;20021;-74
2022/07/28 01:36:35;;;;;;;6.30;2.58;;;;;;;13.11;100.00;102108.97;6191683;23;20016;-74
2022/07/28 01:39:03;;;;;;;7.82;2.97;;;;;;;13.15;100.00;102109.88;6212768;23;20055;-74
2022/07/28 01:41:35;;;;;;;4.13;3.08;;;;;;;13.17;100.00;102106.38;6187316;23;20469;-74
2022/07/28 01:44:11;;;;;;;2.95;2.70;;;;;;;13.20;100.00;102108.19;6212712;23;20020;-75
2022/07/28 01:46:43;;;;;;;2.47;2.28;;;;;;;13.23;100.00;102098.53;6194752;23;20024;-75
2022/07/28 01:49:13;;;;;;;4.22;2.47;;;;;;;13.25;100.00;102096.78;6207470;23;20059;-74
2022/07/28 01:51:43;;;;;;;4.00;3.00;;;;;;;13.28;100.00;102095.94;6189413;23;20350;-74
2022/07/28 01:54:13;;;;;;;4.43;3.05;;;;;;;13.30;100.00;102082.72;6164618;23;20333;-74
2022/07/28 01:56:43;;;;;;;4.85;2.58;;;;;;;13.32;100.00;102079.25;6181332;23;20042;-75
2022/07/28 01:59:16;;;;;;;4.05;3.28;;;;;;;13.34;100.00;102079.25;6154606;23;20021;-75
2022/07/28 02:01:45;;;;;;;5.93;2.55;;;;;;;13.34;100.00;102084.56;6167146;23;20031;-74
2022/07/28 02:04:17;;;;;;;3.88;2.83;;;;;;;13.34;100.00;102084.56;6210413;23;20545;-75
2022/07/28 02:06:47;;;;;;;4.35;2.47;;;;;;;13.36;100.00;102085.47;6207626;23;20036;-76
2022/07/28 02:09:17;;;;;;;6.85;3.33;;;;;;;13.38;100.00;102081.06;6179942;23;20024;-76
2022/07/28 02:11:48;;;;;;;6.65;2.60;;;;;;;13.39;100.00;102082.88;6213459;23;20028;-74
2022/07/28 02:14:21;;;;;;;5.55;2.47;;;;;;;13.41;100.00;102076.69;6214838;23;20012;-76
2022/07/28 02:17:00;;;;;;;2.83;2.58;;;;;;;13.43;100.00;102074.97;6223035;23;20016;-74
2022/07/28 02:19:30;;;;;;;2.70;2.47;;;;;;;13.43;100.00;102072.31;6209476;23;20021;-74
2022/07/28 02:22:01;;;;;;;5.13;2.42;;;;;;;13.42;100.00;102081.13;6171170;23;20241;-74
2022/07/28 02:24:31;;;;;;;4.22;2.63;;;;;;;13.42;100.00;102072.28;6215550;23;20013;-74
2022/07/28 02:27:08;;;;;;;5.22;2.65;;;;;;;13.41;100.00;102082.00;6206383;23;20051;-74
2022/07/28 02:29:43;;;;;;;3.53;2.65;;;;;;;13.41;100.00;102081.13;6213570;23;20020;-77
2022/07/28 02:32:30;;;;;;;5.32;2.83;;;;;;;13.41;100.00;102082.00;6217186;23;20016;-76
2022/07/28 02:35:06;;;;;;;4.90;2.95;;;;;;;13.42;100.00;102081.13;6190755;23;20024;-76
2022/07/28 02:37:40;;;;;;;3.70;3.00;;;;;;;13.42;100.00;102081.13;6212411;23;20180;-76
2022/07/28 02:40:14;;;;;;;7.82;2.92;;;;;;;13.43;100.00;102080.25;6213558;23;20013;-76
2022/07/28 02:42:47;;;;;;;4.63;2.70;;;;;;;13.44;100.00;102083.81;6214315;23;20021;-76
2022/07/28 02:45:21;;;;;;;3.22;2.58;;;;;;;13.43;100.00;102085.56;6214321;23;20021;-76
2022/07/28 02:47:57;;;;;;;7.78;2.45;;;;;;;13.43;100.00;102082.91;6211899;23;20020;-76
2022/07/28 02:50:27;;;;;;;3.88;2.40;;;;;;;13.44;100.00;102081.16;6185730;23;20017;-76
2022/07/28 02:53:01;;;;;;;3.00;2.50;;;;;;;13.45;100.00;102082.94;6179962;23;20008;-74
2022/07/28 02:55:47;;;;;;;6.93;2.45;;;;;;;13.47;100.00;102085.59;6191674;23;20020;-76
2022/07/28 02:58:22;;;;;;;4.13;2.33;;;;;;;13.48;100.00;102082.97;6215124;23;20024;-74
2022/07/28 03:00:53;;;;;;;4.60;2.80;;;;;;;13.50;100.00;102080.34;6177264;23;20043;-74
2022/07/28 03:03:23;;;;;;;3.28;2.58;;;;;;;13.51;100.00;102077.69;6214850;23;20020;-74
2022/07/28 03:05:52;;;;;;;7.72;2.47;;;;;;;13.51;100.00;102085.63;6139858;23;20020;-74
2022/07/28 03:08:21;;;;;;;4.70;2.50;;;;;;;13.52;100.00;102094.50;6214809;23;20023;-74
2022/07/28 03:11:04;;;;;;;5.00;2.33;;;;;;;13.53;100.00;102093.59;6231296;23;20032;-76
2022/07/28 03:13:32;;;;;;;3.28;2.50;;;;;;;13.53;100.00;102091.81;6215344;23;20012;-74
2022/07/28 03:16:01;;;;;;;2.60;2.40;;;;;;;13.54;100.00;102096.28;6209269;23;20047;-76
2022/07/28 03:18:32;;;;;;;7.32;2.53;;;;;;;13.57;100.00;102084.81;6205600;23;20016;-75
2022/07/28 03:21:01;;;;;;;4.55;2.58;;;;;;;13.57;100.00;102093.66;6189246;23;20230;-76
2022/07/28 03:23:35;;;;;;;3.47;2.53;;;;;;;13.59;100.00;102098.94;6214570;23;20021;-75
2022/07/28 03:26:33;;;;;;;2.78;2.53;;;;;;;13.59;100.00;102091.00;6220364;23;20600;-75
2022/07/28 03:29:02;;;;;;;3.42;2.30;;;;;;;13.57;100.00;102093.66;6206081;23;20020;-74
2022/07/28 03:31:34;;;;;;;2.73;2.40;;;;;;;13.55;100.00;102095.38;6214248;23;20326;-75
2022/07/28 03:34:04;;;;;;;6.00;2.78;;;;;;;13.55;100.00;102095.38;6210169;23;20149;-76
2022/07/28 03:36:40;;;;;;;5.68;2.55;;;;;;;13.55;100.00;102094.50;6190907;23;20342;-76
2022/07/28 03:39:11;;;;;;;4.30;2.38;;;;;;;13.55;100.00;102098.03;6187752;23;20134;-74
2022/07/28 03:41:39;;;;;;;;;;;;;;;13.54;100.00;102098.91;6209440;23;20438;-75
2022/07/28 03:44:10;;;;;;;2.70;2.50;;;;;;;13.54;100.00;102096.28;6201861;23;20129;-75
2022/07/28 03:46:43;;;;;;;;;;;;;;;13.56;100.00;102101.59;6180456;23;20020;-74
2022/07/28 03:49:12;;;;;;;3.92;2.72;;;;;;;13.55;100.00;102113.03;6212694;23;20506;-75
2022/07/28 03:51:40;;;;;;;6.53;3.60;;;;;;;13.57;100.00;102104.25;6207602;23;20016;-74
2022/07/28 03:54:09;;;;;;;3.38;3.08;;;;;;;13.57;100.00;102109.56;6200334;23;20027;-75
2022/07/28 03:56:38;;;;;;;4.53;3.35;;;;;;;13.59;100.00;102109.53;6183545;23;20021;-76
2022/07/28 03:59:06;;;;;;;5.78;2.60;;;;;;;13.58;100.00;102108.66;6235417;23;20481;-76
2022/07/28 04:01:35;;;;;;;4.60;2.33;;;;;;;13.59;100.00;102115.75;6206656;23;20016;-75
2022/07/28 04:04:04;;;;;;;4.53;2.30;;;;;;;13.60;100.00;102108.69;6184986;23;20545;-76
2022/07/28 04:06:32;;;;;;;2.63;2.20;;;;;;;13.59;100.00;102105.16;6182477;23;20454;-74
2022/07/28 04:09:01;;;;;;;2.45;2.25;;;;;;;13.59;100.00;102106.91;6191154;23;20016;-76
2022/07/28 04:11:29;;;;;;;11.25;2.20;;;;;;;13.58;100.00;102108.66;6210308;23;20021;-74
2022/07/28 04:13:58;;;;;;;3.45;2.38;;;;;;;13.58;100.00;102105.13;6210312;23;20201;-76
2022/07/28 04:16:26;;;;;;;3.80;2.10;;;;;;;13.58;100.00;102103.38;6214956;23;20024;-76
2022/07/28 04:18:55;;;;;;;6.55;2.63;;;;;;;13.58;100.00;102105.13;6184646;23;20221;-74
2022/07/28 04:21:24;;;;;;;4.22;2.40;;;;;;;13.59;100.00;102106.91;6215345;23;20020;-74
2022/07/28 04:23:53;;;;;;;4.20;2.15;;;;;;;13.62;100.00;102112.25;6219846;23;20350;-74
2022/07/28 04:26:28;;;;;;;5.07;2.10;;;;;;;13.66;100.00;102106.09;6203802;23;20024;-74
2022/07/28 04:28:57;;;;;;;6.78;2.00;;;;;;;13.68;100.00;102103.47;6209492;23;20143;-74
2022/07/28 04:31:30;;;;;;;9.85;6.90;;;;;;;13.70;100.00;102104.38;6180799;23;20017;-74
2022/07/28 04:33:59;;;;;;;4.07;2.55;;;;;;;13.67;100.00;102102.59;6211234;23;20016;-76
2022/07/28 04:36:28;;;;;;;3.78;2.20;;;;;;;13.70;100.00;102096.44;6214901;23;20028;-74
2022/07/28 04:38:58;;;;;;;4.30;2.72;;;;;;;13.72;100.00;102106.16;6185196;23;20047;-74
2022/07/28 04:41:26;;;;;;;3.47;2.03;;;;;;;13.74;100.00;102103.53;6214859;23;20028;-75
2022/07/28 04:43:55;;;;;;;2.17;1.98;;;;;;;13.74;100.00;102101.78;6194139;23;20020;-74
2022/07/28 04:46:23;;;;;;;5.95;2.63;;;;;;;13.75;100.00;102105.31;6201119;23;20017;-74
2022/07/28 04:48:52;;;;;;;3.72;2.50;;;;;;;13.76;100.00;102093.81;6235345;23;20020;-74
2022/07/28 04:51:22;;;;;;;6.82;2.10;;;;;;;13.78;100.00;102107.97;6215029;23;20025;-75
2022/07/28 04:53:52;;;;;;;7.40;2.42;;;;;;;13.76;100.00;102093.81;6195094;23;20017;-74
2022/07/28 04:56:20;;;;;;;3.17;2.15;;;;;;;13.77;100.00;102095.63;6214889;23;20019;-74
2022/07/28 04:58:48;;;;;;;4.75;2.58;;;;;;;13.76;100.00;102102.69;6207713;23;20024;-76
2022/07/28 05:01:17;;;;;;;4.32;2.00;;;;;;;13.77;100.00;102099.16;6215928;23;20028;-75
2022/07/28 05:03:45;;;;;;;4.55;2.30;;;;;;;13.79;100.00;102108.00;6176402;23;20028;-74
2022/07/28 05:06:14;;;;;;;3.95;2.00;;;;;;;13.80;100.00;102103.59;6202510;23;20138;-76
2022/07/28 05:08:42;;;;;;;3.10;2.17;;;;;;;13.81;100.00;102113.31;6237367;23;20031;-75
2022/07/28 05:11:10;;;;;;;3.30;2.08;;;;;;;13.83;100.00;102107.16;6216313;23;20376;-74
2022/07/28 05:13:39;;;;;;;3.08;2.10;;;;;;;13.86;100.00;102111.59;6199376;23;20027;-75
2022/07/28 05:16:07;;;;;;;11.45;8.90;;;;;;;13.88;100.00;102109.88;6226266;23;20518;-75
2022/07/28 05:18:36;;;;;;;6.72;2.92;;;;;;;13.91;100.00;102109.88;6178568;23;20020;-75
2022/07/28 05:21:05;;;;;;;7.25;2.13;;;;;;;13.93;100.00;102101.94;6210767;23;20234;-75
2022/07/28 05:23:33;;;;;;;5.18;2.22;;;;;;;13.94;100.00;102109.03;6189731;23;20012;-75
2022/07/28 05:26:06;;;;;;;5.97;2.50;;;;;;;13.94;100.00;102107.25;6189146;23;20017;-74
2022/07/28 05:28:34;;;;;;;7.05;2.25;;;;;;;13.94;100.00;102104.59;6212274;23;20032;-76
2022/07/28 05:31:02;;;;;;;6.68;2.20;;;;;;;13.95;100.00;102110.78;6210765;23;20205;-76
2022/07/28 05:33:31;;;;;;;8.70;2.20;;;;;;;13.95;100.00;102109.06;6203420;23;20021;-75
2022/07/28 05:36:00;;;;;;;6.35;2.28;;;;;;;13.96;100.00;102117.88;6210173;23;20234;-74
2022/07/28 05:38:29;;;;;;;2.35;1.90;;;;;;;13.97;100.00;102120.56;6214503;23;20047;-74
2022/07/28 05:40:59;;;;;;;3.58;1.98;;;;;;;14.02;100.00;102123.22;6190203;23;20336;-76
2022/07/28 05:43:27;;;;;;;6.05;2.28;;;;;;;14.03;100.00;102120.59;6215110;23;20353;-76
2022/07/28 05:45:56;;;;;;;3.75;1.90;;;;;;;14.06;100.00;102122.38;6180251;23;20049;-76
2022/07/28 05:48:25;;;;;;;3.70;2.15;;;;;;;14.08;100.00;102130.34;6214723;23;20028;-75
2022/07/28 05:50:54;;;;;;;8.07;2.53;;;;;;;14.05;100.00;102125.91;6212515;23;20328;-74
2022/07/28 05:53:22;;;;;;;5.38;2.50;;;;;;;14.07;100.00;102124.16;6190027;23;20191;-74
2022/07/28 05:55:51;;;;;;;4.97;2.70;;;;;;;14.11;100.00;102133.91;6213828;23;20465;-74
2022/07/28 05:58:29;;;;;;;4.40;2.25;;;;;;;14.16;100.00;102126.91;6167619;23;20119;-76
2022/07/28 06:01:00;;;;;;;14.80;2.80;;;;;;;14.21;100.00;102134.88;6209986;23;20021;-74
2022/07/28 06:03:31;;;;;;;3.90;2.50;;;;;;;14.23;100.00;102138.44;6209869;23;20021;-74
2022/07/28 06:05:59;;;;;;;4.20;2.63;;;;;;;14.30;100.00;102145.56;6215748;23;20195;-74
2022/07/28 06:08:45;;;;;;;4.53;3.00;;;;;;;14.29;100.00;102145.56;6200206;23;20024;-76
2022/07/28 06:11:15;;;;;;;2.92;2.55;;;;;;;14.28;100.00;102146.44;6205780;23;20021;-76
2022/07/28 06:13:51;;;;;;;5.30;3.10;;;;;;;14.24;100.00;102161.44;6193076;23;20016;-76
2022/07/28 06:16:21;;;;;;;3.20;2.90;;;;;;;14.23;100.00;102159.66;6205575;23;20027;-76
2022/07/28 06:18:51;;;;;;;4.97;2.75;;;;;;;14.21;100.00;102164.03;6216653;23;20024;-76
2022/07/28 06:21:23;;;;;;;2.83;2.58;;;;;;;14.21;100.00;102162.31;6212554;23;20564;-74
2022/07/28 06:23:51;;;;;;;4.93;2.60;;;;;;;14.23;100.00;102163.22;6212453;23;20016;-75
2022/07/28 06:26:20;;;;;;;3.47;2.30;;;;;;;14.26;100.00;102161.47;6189186;23;20555;-73
2022/07/28 06:28:51;;;;;;;3.67;2.38;;;;;;;14.28;100.00;102167.66;6178127;23;20020;-76
2022/07/28 06:31:19;;;;;;;5.60;2.60;;;;;;;14.30;100.00;102168.56;6198438;23;20021;-74
2022/07/28 06:33:48;;;;;;;3.38;1.92;;;;;;;14.30;100.00;102174.75;6240135;23;20036;-76
2022/07/28 06:36:16;;;;;;;6.90;2.58;;;;;;;14.30;100.00;102177.38;6186147;23;20013;-76
2022/07/28 06:38:48;;;;;;;5.00;2.38;;;;;;;14.32;100.00;102173.00;6190977;23;20017;-76
2022/07/28 06:41:16;;;;;;;3.05;1.30;;;;;;;14.34;100.00;102178.31;6226295;23;20020;-76
2022/07/28 06:43:45;;;;;;;6.82;1.95;;;;;;;14.35;100.00;102180.09;6219063;23;20020;-76
2022/07/28 06:46:17;;;;;;;4.63;1.40;;;;;;;14.37;100.00;102173.03;6196887;23;20027;-76
2022/07/28 06:48:46;;;;;;;3.88;1.45;;;;;;;14.37;100.00;102171.28;6209317;23;20043;-76
2022/07/28 06:51:17;;;;;;;2.95;1.42;;;;;;;14.36;100.00;102174.78;6212825;23;20012;-76
2022/07/28 06:53:47;;;;;;;4.13;1.40;;;;;;;14.38;100.00;102170.38;6215919;23;20437;-76
2022/07/28 06:56:18;;;;;;;1.65;1.55;;;;;;;14.42;100.00;102172.22;6177351;23;20025;-76
2022/07/28 06:58:48;;;;;;;3.53;1.40;;;;;;;14.47;100.00;102169.59;6217554;23;20021;-76
2022/07/28 07:01:17;;;;;;;6.47;1.45;;;;;;;14.51;100.00;102174.03;6206721;23;20024;-76
2022/07/28 07:03:45;;;;;;;2.28;1.27;;;;;;;14.58;100.00;102172.38;6235256;23;20028;-76
2022/07/28 07:06:14;;;;;;;2.67;1.35;;;;;;;14.62;100.00;102163.53;6175572;23;20416;-76
2022/07/28 07:08:43;;;;;;;1.95;1.30;;;;;;;14.67;100.00;102160.91;6239207;23;20028;-74
2022/07/28 07:11:11;;;;;;;5.35;1.38;;;;;;;14.72;100.00;102160.06;6183875;23;20036;-74
2022/07/28 07:13:40;;;;;;;2.97;1.20;;;;;;;14.80;100.00;102162.78;6202376;23;20023;-74
2022/07/28 07:16:09;;;;;;;2.88;1.42;;;;;;;14.88;100.00;102166.38;6183425;23;20025;-74
2022/07/28 07:18:37;;;;;;;2.97;1.40;;;;;;;14.96;100.00;102154.03;6168931;23;20472;-74
2022/07/28 07:21:06;;;;;;;1.55;1.30;;;;;;;15.05;100.00;102163.84;6185895;23;20023;-74
2022/07/28 07:23:34;;;;;;;2.58;1.50;;;;;;;15.12;100.00;102156.78;6180144;23;20020;-77
2022/07/28 07:26:03;;;;;;;2.42;1.30;;;;;;;15.18;100.00;102156.81;6212058;23;20021;-77
2022/07/28 07:28:33;;;;;;;1.88;1.30;;;;;;;15.25;100.00;102155.94;6181316;23;20017;-76
2022/07/28 07:31:02;;;;;;;1.20;1.10;;;;;;;15.32;100.00;102160.41;6187856;23;20043;-76
2022/07/28 07:33:30;;;;;;;2.25;1.27;;;;;;;15.40;100.00;102155.13;6177008;23;20309;-76
2022/07/28 07:35:59;;;;;;;2.83;1.40;;;;;;;15.47;100.00;102153.41;6172581;23;20028;-76
2022/07/28 07:38:27;;;;;;;5.32;1.13;;;;;;;15.54;100.00;102166.72;6212475;23;20316;-76
2022/07/28 07:40:58;;;;;;;5.38;1.58;;;;;;;15.67;100.00;102158.75;6203376;23;20025;-76
2022/07/28 07:43:26;;;;;;;2.28;1.10;;;;;;;15.75;100.00;102151.75;6206339;23;20246;-76
2022/07/28 07:45:55;;;;;;;2.92;1.55;;;;;;;15.85;100.00;102156.19;6194298;23;20357;-76
2022/07/28 07:48:23;;;;;;;3.63;1.52;;;;;;;15.95;100.00;102151.78;6200549;23;20025;-76
2022/07/28 07:50:52;;;;;;;3.25;1.35;;;;;;;16.03;100.00;102142.06;6209966;23;20048;-76
2022/07/28 07:53:21;;;;;;;3.10;1.30;;;;;;;16.13;100.00;102134.97;6210029;23;20627;-76
2022/07/28 07:55:50;;;;;;;1.52;1.20;;;;;;;16.22;100.00;102137.66;6204499;23;20025;-76
2022/07/28 07:58:19;;;;;;;3.00;0.95;;;;;;;16.27;100.00;102143.81;6215608;23;20305;-77
2022/07/28 08:00:48;;;;;;;1.27;1.05;;;;;;;16.32;99.29;102139.41;6194766;23;20016;-77
2022/07/28 08:03:16;;;;;;;4.07;1.10;;;;;;;16.32;97.95;102144.72;6229273;23;20024;-77
2022/07/28 08:05:54;;;;;;;1.85;1.00;;;;;;;16.38;97.76;102139.41;6206005;23;20025;-76
2022/07/28 08:08:23;;;;;;;1.77;0.70;;;;;;;16.41;97.03;102140.28;6212197;23;20012;-75
2022/07/28 08:10:53;;;;;;;2.85;1.15;;;;;;;16.47;96.90;102142.97;6240193;23;20061;-75
2022/07/28 08:13:22;;;;;;;4.25;1.27;;;;;;;16.47;96.41;102138.50;6195299;23;20029;-75
2022/07/28 08:15:51;;;;;;;1.67;0.70;;;;;;;16.51;95.05;102144.72;6214256;23;20031;-76
2022/07/28 08:18:20;;;;;;;3.72;1.00;;;;;;;16.53;94.84;102132.31;6181082;23;20457;-76
2022/07/28 08:20:48;;;;;;;3.72;0.80;;;;;;;16.59;94.42;102131.41;6204275;23;20012;-76
2022/07/28 08:23:17;;;;;;;3.35;1.20;;;;;;;16.65;92.97;102137.59;6224056;23;20478;-75
2022/07/28 08:25:54;;;;;;;3.47;1.00;;;;;;;16.69;92.69;102134.06;6180736;23;20025;-76
2022/07/28 08:28:22;;;;;;;5.07;1.13;;;;;;;16.77;92.66;102136.72;6208822;23;20206;-76
2022/07/28 08:30:52;;;;;;;2.55;0.90;;;;;;;16.87;92.28;102137.59;6196365;23;20252;-76
2022/07/28 08:33:21;;;;;;;1.13;0.95;;;;;;;16.96;91.39;102132.25;6193170;23;20358;-75
2022/07/28 08:35:49;;;;;;;4.75;1.40;;;;;;;17.08;90.88;102128.66;6214827;23;20349;-76
2022/07/28 08:38:18;;;;;;;2.65;0.80;;;;;;;17.22;90.33;102133.94;6210524;23;20017;-76
2022/07/28 08:40:48;;;;;;;1.10;1.00;;;;;;;17.33;89.71;102125.03;6175560;23;20024;-76
2022/07/28 08:43:33;;;;;;;2.97;1.35;;;;;;;17.42;89.95;102126.72;6216607;23;20024;-77
2022/07/28 08:46:03;;;;;;;10.68;1.63;;;;;;;17.50;89.28;102126.69;6205003;23;20021;-76
2022/07/28 08:48:33;;;;;;;;;;;;;;;17.53;88.14;102130.22;6218994;23;20023;-76
2022/07/28 08:51:08;;;;;;;2.10;0.60;;;;;;;17.67;88.97;102126.59;6205679;23;19927;-76
2022/07/28 08:53:38;;;;;;;6.78;1.30;;;;;;;17.91;88.42;102126.47;6234582;23;20016;-76
2022/07/28 08:56:08;;;;;;;;;;;;;;;18.11;84.29;102118.34;6211831;23;20362;-76
2022/07/28 08:58:37;;;;;;;2.47;1.00;;;;;;;18.23;86.05;102125.34;6213152;23;19916;-76
2022/07/28 09:01:07;;;;;;;1.25;0.70;;;;;;;18.20;85.79;102117.34;6204341;23;20497;-76
2022/07/28 09:03:37;;;;;;;1.90;1.08;;;;;;;18.29;85.60;102121.75;6217671;23;20025;-76
2022/07/28 09:06:06;;;;;;;1.80;0.65;;;;;;;18.32;83.47;102135.06;6204708;23;20024;-76
2022/07/28 09:08:35;;;;;;;1.23;0.80;;;;;;;18.31;83.63;102117.28;6204202;23;20039;-77
2022/07/28 09:11:05;;;;;;;3.08;1.00;;;;;;;18.29;83.59;102124.41;6209612;23;20289;-76
2022/07/28 09:13:34;;;;;;;1.40;0.90;;;;;;;18.31;83.99;102125.28;6204090;23;20024;-76
2022/07/28 09:16:05;;;;;;;5.88;1.73;;;;;;;18.39;83.36;102122.53;6204694;23;20527;-76
2022/07/28 09:18:35;;;;;;;2.30;0.95;;;;;;;18.45;81.88;102118.06;6183505;23;20024;-76
2022/07/28 09:21:03;;;;;;;1.13;0.88;;;;;;;18.51;81.97;102123.31;6208172;23;20016;-76
2022/07/28 09:23:42;;;;;;;2.03;1.00;;;;;;;18.59;81.83;102115.22;6206053;23;20450;-76
2022/07/28 09:26:12;;;;;;;0.95;0.95;;;;;;;18.68;80.98;102114.28;6209386;23;20342;-76
2022/07/28 09:28:51;;;;;;;1.45;1.08;;;;;;;18.73;82.36;102116.88;6208245;23;20131;-76
2022/07/28 09:31:21;;;;;;;5.85;1.20;;;;;;;18.81;81.52;102118.59;6211806;23;20012;-75
2022/07/28 09:34:01;;;;;;;1.67;0.88;;;;;;;18.78;80.35;102120.38;6207036;23;20371;-75
2022/07/28 09:36:38;;;;;;;2.05;1.42;;;;;;;18.83;80.51;102118.59;6211518;23;20027;-75
2022/07/28 09:39:07;;;;;;;2.15;0.95;;;;;;;18.88;80.22;102119.41;6202818;23;20222;-75
2022/07/28 09:41:54;;;;;;;1.35;1.08;;;;;;;18.86;77.29;102111.41;6208087;23;20024;-75
2022/07/28 09:44:23;;;;;;;5.50;1.20;;;;;;;18.88;79.29;102120.31;6213898;23;20024;-75
2022/07/28 09:46:53;;;;;;;2.28;0.85;;;;;;;18.84;78.62;102123.03;6205095;23;20134;-75
2022/07/28 09:49:40;;;;;;;2.28;0.82;;;;;;;18.78;76.97;102120.38;6183757;23;20024;-75
2022/07/28 09:52:10;;;;;;;2.28;1.08;;;;;;;18.76;78.05;102123.06;6212852;23;20229;-75
2022/07/28 09:54:38;;;;;;;3.03;0.90;;;;;;;18.73;78.31;102122.22;6190429;23;20024;-76
2022/07/28 09:57:11;;;;;;;2.88;0.93;;;;;;;18.66;78.49;102119.63;6236202;23;20382;-75
2022/07/28 09:59:45;;;;;;;4.68;0.82;;;;;;;18.57;78.51;102118.84;6211417;23;20024;-75
2022/07/28 10:02:25;;;;;;;4.25;1.08;;;;;;;18.46;78.48;102118.94;6215193;23;20488;-75
2022/07/28 10:04:54;;;;;;;1.15;0.93;;;;;;;18.37;79.47;102121.69;6177201;23;20272;-75
2022/07/28 10:07:22;;;;;;;1.77;0.88;;;;;;;18.26;79.48;102127.09;6215760;23;20016;-75
2022/07/28 10:10:01;;;;;;;2.85;0.93;;;;;;;18.15;79.54;102120.97;6198974;23;20305;-75
2022/07/28 10:12:31;;;;;;;1.60;0.80;;;;;;;18.09;80.82;102125.47;6215577;23;20480;-76
2022/07/28 10:18:18;;;;;;;3.03;0.95;;;;;;;17.90;80.99;102123.81;6221926;23;20457;-77
2022/07/28 10:20:49;;;;;;;3.25;1.02;;;;;;;17.81;81.04;102129.19;6214986;23;20020;-77
2022/07/28 10:23:19;;;;;;;1.70;1.00;;;;;;;17.76;81.19;102131.88;6239266;23;20027;-75
2022/07/28 10:25:49;;;;;;;1.97;0.80;;;;;;;17.71;81.52;102129.25;6222102;23;20020;-75
2022/07/28 10:28:20;;;;;;;;;;;;;;;17.64;81.90;102126.63;6215792;23;20025;-75
2022/07/28 10:30:54;;;;;;;1.25;0.90;;;;;;;17.58;81.44;102122.22;6185124;23;19927;-75
2022/07/28 10:33:28;;;;;;;1.10;0.93;;;;;;;17.45;80.44;102124.06;6210720;23;20028;-75
2022/07/28 10:35:57;;;;;;;1.77;0.95;;;;;;;17.32;80.70;102119.69;6187455;23;20047;-74
2022/07/28 10:38:33;;;;;;;1.60;0.95;;;;;;;17.26;80.37;102114.41;6179106;23;20027;-76
2022/07/28 10:41:05;;;;;;;3.78;0.85;;;;;;;17.15;80.06;102117.97;6200610;23;20023;-75
2022/07/28 10:43:35;;;;;;;5.63;0.93;;;;;;;17.09;80.10;102118.00;6205092;23;20023;-75
2022/07/28 10:46:11;;;;;;;1.73;0.95;;;;;;;17.07;79.05;102108.22;6211679;23;20453;-76
2022/07/28 10:48:43;;;;;;;4.07;1.08;;;;;;;17.05;80.05;102105.59;6199035;23;20449;-75
2022/07/28 10:51:13;;;;;;;1.67;0.93;;;;;;;17.08;78.88;102105.56;6216263;23;20468;-75
2022/07/28 10:53:52;;;;;;;2.28;0.80;;;;;;;17.14;78.76;102108.22;6211882;23;20465;-77
2022/07/28 10:56:40;;;;;;;1.23;0.95;;;;;;;17.23;79.09;102103.75;6208603;23;20314;-75
2022/07/28 10:59:10;;;;;;;4.82;1.85;;;;;;;17.30;79.44;102105.50;6211239;23;20560;-76
2022/07/28 11:01:40;;;;;;;3.28;0.88;;;;;;;17.37;80.11;102104.56;6212694;23;20008;-76
2022/07/28 11:04:51;;;;;;;1.05;0.88;;;;;;;17.55;80.96;102106.25;6210790;23;20021;-76
2022/07/28 11:07:21;;;;;;;3.25;0.80;;;;;;;17.68;79.17;102104.41;6191678;23;20027;-76
2022/07/28 11:09:50;;;;;;;3.63;1.02;;;;;;;17.71;78.63;102107.03;6208681;23;20027;-76
2022/07/28 11:12:55;;;;;;;3.92;1.05;;;;;;;17.79;79.54;102105.22;6232664;23;20466;-76
2022/07/28 11:15:32;;;;;;;0.98;0.88;;;;;;;17.92;79.51;102106.94;6214326;23;20023;-76
2022/07/28 11:18:03;;;;;;;1.65;0.93;;;;;;;18.04;78.92;102107.72;6210154;23;20020;-76
2022/07/28 11:20:55;;;;;;;0.90;0.80;;;;;;;18.18;78.36;102110.28;6209712;23;20124;-77
2022/07/28 11:23:40;;;;;;;2.67;0.93;;;;;;;18.33;78.35;102112.81;6209161;23;20446;-77
2022/07/28 11:26:22;;;;;;;3.80;1.42;;;;;;;18.50;77.83;102107.31;6209543;23;20035;-76
2022/07/28 11:29:04;;;;;;;1.83;1.10;;;;;;;18.70;77.74;102105.34;6195170;23;20234;-76
2022/07/28 11:31:47;;;;;;;2.35;0.80;;;;;;;18.85;75.81;102100.78;6214690;23;20022;-75
2022/07/28 11:34:22;;;;;;;2.10;0.95;;;;;;;18.94;75.67;102095.31;6213769;23;20454;-76
2022/07/28 11:36:56;;;;;;;1.65;0.70;;;;;;;19.07;76.07;102098.72;6183771;23;20020;-75
2022/07/28 11:39:33;;;;;;;2.25;0.88;;;;;;;19.17;75.06;102091.47;6211806;23;20021;-75
2022/07/28 11:42:28;;;;;;;3.78;1.02;;;;;;;19.13;73.89;102087.06;6236144;23;20324;-75
2022/07/28 11:45:21;;;;;;;1.92;1.00;;;;;;;19.21;73.76;102088.75;6199265;23;20134;-75
2022/07/28 11:48:13;;;;;;;1.90;0.90;;;;;;;19.39;71.31;102087.59;6173106;23;20024;-75
2022/07/28 11:51:02;;;;;;;3.78;0.93;;;;;;;19.55;73.83;102082.06;6183530;23;20068;-76